Time;durP1;ratioP1;P1;durP2;ratioP2;P2;SDS_P1;SDS_P2;PMS_P1;PMS_P2;Temp;Humidity;BMP_temperature;BMP_pressure;BME280_temperature;BME280_humidity;BME280_pressure;Samples;Min_cycle;Max_cycle;Signal;HPM_P1;HPM_P2
2023/01/05 00:01:26;;;;;;;24.25;16.90;;;;;;;4.42;100.00;101561.13;5000346;28;20060;-84
2023/01/05 00:03:51;;;;;;;29.73;16.40;;;;;;;4.56;100.00;101587.72;5009942;28;20050;-80
2023/01/05 00:06:17;;;;;;;25.80;16.50;;;;;;;4.37;100.00;101541.88;5003259;28;20057;-83
2023/01/05 00:08:43;;;;;;;29.48;18.75;;;;;;;3.86;100.00;101472.13;5011458;28;20038;-83
2023/01/05 00:22:37;;;;;;;28.85;17.10;;;;;;;4.65;100.00;101589.00;5002326;28;20813;-83
2023/01/05 00:25:12;;;;;;;29.50;14.40;;;;;;;4.53;100.00;101577.22;5009346;28;20080;-83
2023/01/05 00:27:39;;;;;;;25.65;16.42;;;;;;;3.89;100.00;101472.28;5008480;28;20144;-83
2023/01/05 00:30:06;;;;;;;25.35;15.07;;;;;;;3.99;100.00;101504.72;5008338;28;20147;-82
2023/01/05 00:32:31;;;;;;;31.30;15.73;;;;;;;3.49;100.00;101408.22;5003735;28;20060;-83
2023/01/05 00:34:58;;;;;;;25.17;17.88;;;;;;;4.23;100.00;101549.06;4960666;28;1302590;-82
2023/01/05 00:37:26;;;;;;;22.92;15.75;;;;;;;3.93;100.00;101507.94;5009195;28;20049;-82
2023/01/05 00:39:52;;;;;;;31.30;17.58;;;;;;;4.28;100.00;101567.44;5001976;28;20046;-81
2023/01/05 00:42:18;;;;;;;29.27;17.55;;;;;;;3.30;100.00;101385.75;5006258;28;20957;-84
2023/01/05 00:44:43;;;;;;;26.10;16.73;;;;;;;4.35;100.00;101564.28;5006466;28;20060;-85
2023/01/05 00:47:09;;;;;;;36.20;14.23;;;;;;;4.30;100.00;101555.41;5012686;28;20041;-83
2023/01/05 00:49:34;;;;;;;22.42;14.38;;;;;;;3.49;100.00;101434.16;5014955;28;20045;-84
2023/01/05 00:52:00;;;;;;;24.02;16.15;;;;;;;4.26;100.00;101556.09;5012363;28;20057;-85
2023/01/05 00:54:26;;;;;;;28.55;17.33;;;;;;;3.39;100.00;101387.84;5009338;28;20054;-85
2023/01/05 00:56:51;;;;;;;29.85;19.30;;;;;;;4.24;100.00;101543.06;5008341;28;20572;-85
2023/01/05 00:59:17;;;;;;;26.45;16.08;;;;;;;3.85;100.00;101529.19;5010344;28;20091;-85
2023/01/05 01:01:50;;;;;;;23.77;16.35;;;;;;;3.39;100.00;101418.97;5008185;28;20041;-82
2023/01/05 01:04:17;;;;;;;31.85;18.30;;;;;;;3.95;100.00;101503.69;5014015;28;20054;-84
2023/01/05 01:06:43;;;;;;;25.25;16.45;;;;;;;4.20;100.00;101528.16;5001163;28;20555;-85
2023/01/05 01:09:09;;;;;;;30.60;19.55;;;;;;;4.13;100.00;101526.09;5015005;28;20140;-83
2023/01/05 01:11:35;;;;;;;27.70;18.23;;;;;;;3.89;100.00;101495.63;5010706;28;20050;-86
2023/01/05 01:14:00;;;;;;;26.75;16.67;;;;;;;3.78;100.00;101481.28;5012142;28;20052;-83
2023/01/05 01:16:26;;;;;;;29.92;18.95;;;;;;;3.64;100.00;101465.09;5011003;28;20038;-84
2023/01/05 01:18:51;;;;;;;31.35;15.98;;;;;;;3.98;100.00;101514.22;5008390;28;20517;-85
2023/01/05 01:21:17;;;;;;;41.72;16.45;;;;;;;3.52;100.00;101433.41;5014169;28;20190;-84
2023/01/05 01:23:43;;;;;;;28.45;17.52;;;;;;;3.22;100.00;101360.28;5019825;28;20109;-85
2023/01/05 01:26:11;;;;;;;24.48;14.88;;;;;;;3.73;100.00;101460.31;5009581;28;20045;-80
2023/01/05 01:28:37;;;;;;;27.20;17.23;;;;;;;3.44;100.00;101388.06;5008522;28;20034;-82
2023/01/05 01:31:04;;;;;;;29.85;15.15;;;;;;;3.73;100.00;101443.84;5011396;28;20096;-82
2023/01/05 01:33:30;;;;;;;28.55;18.52;;;;;;;3.23;100.00;101331.84;5005837;28;20486;-81
2023/01/05 01:35:56;;;;;;;27.63;16.80;;;;;;;3.52;100.00;101395.38;5004980;28;20057;-83
2023/01/05 01:38:22;;;;;;;30.95;16.33;;;;;;;4.10;100.00;101476.63;5002430;28;20045;-81
2023/01/05 01:40:49;;;;;;;32.30;18.15;;;;;;;3.31;100.00;101326.97;5001710;28;20037;-82
2023/01/05 01:43:19;;;;;;;29.38;18.17;;;;;;;4.18;100.00;101464.84;5007652;28;20041;-81
2023/01/05 01:45:45;;;;;;;30.10;16.38;;;;;;;3.47;100.00;101300.00;5009393;28;20464;-86
2023/01/05 01:48:17;;;;;;;26.33;16.83;;;;;;;4.38;100.00;101445.81;5009972;28;20046;-85
2023/01/05 01:50:50;;;;;;;35.22;16.00;;;;;;;3.99;100.00;101357.59;5000423;28;20112;-84
2023/01/05 01:53:30;;;;;;;25.85;15.55;;;;;;;4.38;100.00;101412.03;5008792;28;20041;-79
2023/01/05 01:55:59;;;;;;;34.33;17.63;;;;;;;3.76;100.00;101286.53;5022157;28;20030;-80
2023/01/05 01:58:29;;;;;;;41.88;18.75;;;;;;;4.47;100.00;101411.50;5009512;28;20077;-84
2023/01/05 02:00:55;;;;;;;28.45;15.57;;;;;;;3.59;100.00;101284.94;5011224;28;20046;-85
2023/01/05 02:03:21;;;;;;;27.90;16.35;;;;;;;4.57;100.00;101428.38;5010752;28;20050;-81
2023/01/05 02:05:46;;;;;;;33.45;18.88;;;;;;;3.55;100.00;101280.44;5022096;28;20097;-82
2023/01/05 02:08:14;;;;;;;26.75;17.30;;;;;;;3.64;100.00;101252.28;5013691;28;20038;-82
2023/01/05 02:10:42;;;;;;;32.00;17.20;;;;;;;4.64;100.00;101412.19;5007812;28;20065;-82
2023/01/05 02:13:20;;;;;;;27.20;15.85;;;;;;;4.66;100.00;101413.16;5008894;28;20046;-81
2023/01/05 02:16:08;;;;;;;30.98;17.48;;;;;;;4.43;100.00;101400.09;5003644;28;20042;-81
2023/01/05 02:18:45;;;;;;;26.52;17.48;;;;;;;3.86;100.00;101253.16;4991340;28;20432;-85
2023/01/05 02:21:30;;;;;;;25.88;15.55;;;;;;;4.03;100.00;101275.53;5001960;28;20085;-83
2023/01/05 02:24:18;;;;;;;25.35;15.35;;;;;;;4.58;100.00;101347.84;5003833;28;20045;-84
2023/01/05 02:27:02;;;;;;;34.05;17.95;;;;;;;4.44;100.00;101388.00;4989723;28;20057;-83
2023/01/05 02:29:53;;;;;;;27.45;16.00;;;;;;;4.57;100.00;101381.59;5013770;28;20072;-83
2023/01/05 02:32:26;;;;;;;22.67;16.27;;;;;;;4.52;100.00;101375.31;5001759;28;20567;-84
2023/01/05 02:35:17;;;;;;;28.00;17.63;;;;;;;4.54;100.00;101374.56;5003992;28;20045;-80
2023/01/05 02:37:53;;;;;;;25.60;15.35;;;;;;;3.64;100.00;101218.56;5000769;28;20314;-80
2023/01/05 02:40:28;;;;;;;29.80;16.33;;;;;;;3.59;100.00;101213.16;5000019;28;20448;-83
2023/01/05 02:42:55;;;;;;;27.30;16.95;;;;;;;3.37;100.00;101177.69;5003825;28;20160;-83
2023/01/05 02:45:23;;;;;;;28.95;17.00;;;;;;;4.32;100.00;101343.34;5008830;28;20037;-82
2023/01/05 02:47:49;;;;;;;29.58;16.38;;;;;;;3.24;100.00;101174.50;5017038;28;20037;-83
2023/01/05 02:50:25;;;;;;;27.30;16.65;;;;;;;3.46;100.00;101197.03;5006875;28;20045;-82
2023/01/05 02:53:14;;;;;;;27.95;16.80;;;;;;;3.92;100.00;101275.06;5009657;28;20069;-83
2023/01/05 02:55:43;;;;;;;29.52;16.38;;;;;;;4.29;100.00;101344.09;5014098;28;20076;-83
2023/01/05 02:58:20;;;;;;;28.80;16.50;;;;;;;4.32;100.00;101330.34;5008028;28;20092;-83
2023/01/05 03:01:21;;;;;;;34.30;17.52;;;;;;;4.29;100.00;101325.03;5008027;28;20042;-83
2023/01/05 03:03:53;;;;;;;25.65;16.15;;;;;;;4.34;100.00;101320.91;4981863;28;20111;-82
2023/01/05 03:06:28;;;;;;;33.35;19.70;;;;;;;3.50;100.00;101201.53;4999228;28;20367;-82
2023/01/05 03:08:57;;;;;;;31.83;15.25;;;;;;;4.17;100.00;101312.44;5003799;28;20053;-82
2023/01/05 03:14:29;;;;;;;32.65;18.35;;;;;;;3.76;100.00;101268.34;5000827;28;20401;-83
2023/01/05 03:16:58;;;;;;;27.67;15.23;;;;;;;4.14;100.00;101320.97;5004943;28;20036;-81
2023/01/05 03:19:40;;;;;;;30.75;16.92;;;;;;;4.11;100.00;101297.47;5008607;28;20569;-81
2023/01/05 03:36:25;;;;;;;24.50;14.10;;;;;;;3.42;100.00;101167.50;5006426;28;19932;-82
2023/01/05 03:38:53;;;;;;;27.45;14.35;;;;;;;4.18;100.00;101289.09;4997342;28;20111;-81
2023/01/05 03:41:19;;;;;;;27.17;15.68;;;;;;;4.19;100.00;101314.28;5008965;28;20038;-81
2023/01/05 03:43:47;;;;;;;25.23;17.35;;;;;;;3.49;100.00;101184.19;5005110;28;20424;-83
2023/01/05 03:46:20;;;;;;;29.88;16.50;;;;;;;3.34;100.00;101171.47;5007657;28;20052;-81
2023/01/05 03:48:47;;;;;;;29.92;16.70;;;;;;;3.96;100.00;101257.94;5007514;28;20045;-82
2023/01/05 03:51:14;;;;;;;25.55;16.02;;;;;;;3.37;100.00;101159.53;5007497;28;20070;-82
2023/01/05 03:53:39;;;;;;;27.90;17.38;;;;;;;2.56;100.00;101033.41;5000065;28;20052;-82
2023/01/05 03:56:05;;;;;;;28.02;16.90;;;;;;;4.12;100.00;101316.53;5008328;28;20401;-82
2023/01/05 03:58:31;;;;;;;28.38;16.52;;;;;;;4.11;100.00;101309.59;5005325;28;20042;-85
2023/01/05 04:00:56;;;;;;;25.48;17.60;;;;;;;4.17;100.00;101312.44;5002942;28;20050;-84
2023/01/05 04:03:22;;;;;;;27.13;15.95;;;;;;;3.18;100.00;101154.38;5006342;28;20042;-85
2023/01/05 04:05:47;;;;;;;28.30;18.55;;;;;;;3.87;100.00;101278.31;5015274;28;20489;-84
2023/01/05 04:08:13;;;;;;;31.80;20.98;;;;;;;3.30;100.00;101185.13;5004361;28;20037;-83
2023/01/05 04:10:38;;;;;;;24.65;16.85;;;;;;;3.52;100.00;101215.47;5003399;28;20775;-81
2023/01/05 04:13:04;;;;;;;31.15;18.58;;;;;;;3.11;100.00;101153.25;5003689;28;20497;-83
2023/01/05 04:15:29;;;;;;;29.05;18.17;;;;;;;3.11;100.00;101150.66;5008386;28;20046;-83
2023/01/05 04:17:55;;;;;;;31.33;19.90;;;;;;;3.81;100.00;101276.34;5010056;28;20769;-83
2023/01/05 04:20:20;;;;;;;33.70;17.92;;;;;;;3.63;100.00;101236.63;5006293;28;20849;-84
2023/01/05 04:22:45;;;;;;;34.83;19.67;;;;;;;2.78;100.00;101087.91;5007687;28;20037;-84
2023/01/05 04:25:11;;;;;;;38.08;20.05;;;;;;;3.59;100.00;101227.88;5009268;28;20600;-84
2023/01/05 04:27:36;;;;;;;47.00;19.85;;;;;;;3.14;100.00;101157.69;5007600;28;20037;-84
2023/01/05 04:30:03;;;;;;;33.78;19.13;;;;;;;2.08;100.00;101129.72;5013245;28;20048;-82
2023/01/05 04:32:28;;;;;;;35.25;20.05;;;;;;;2.91;100.00;101250.03;4999169;28;20054;-83
2023/01/05 04:34:53;;;;;;;37.10;22.35;;;;;;;3.06;100.00;101267.94;5008637;28;20088;-82
2023/01/05 04:37:19;;;;;;;37.15;20.95;;;;;;;2.99;100.00;101255.53;5005488;28;20807;-84
2023/01/05 04:39:44;;;;;;;36.40;18.88;;;;;;;2.21;100.00;101162.25;5002163;28;20112;-85
2023/01/05 04:42:10;;;;;;;34.38;17.98;;;;;;;2.06;100.00;101110.63;5000791;28;20049;-84
2023/01/05 04:44:35;;;;;;;36.67;20.75;;;;;;;2.03;100.00;101144.16;5007965;28;20456;-82
2023/01/05 04:47:01;;;;;;;29.88;18.75;;;;;;;1.93;100.00;101097.97;5008953;28;20041;-81
2023/01/05 04:49:26;;;;;;;34.75;18.73;;;;;;;2.19;100.00;101151.81;5010664;28;20029;-78
2023/01/05 04:51:52;;;;;;;35.95;19.30;;;;;;;2.12;100.00;101217.06;5006961;28;20068;-81
2023/01/05 04:54:17;;;;;;;33.38;16.77;;;;;;;1.87;100.00;101117.56;5009354;28;20057;-80
2023/01/05 04:56:43;;;;;;;29.25;17.83;;;;;;;1.77;100.00;101091.19;5011750;28;20097;-81
2023/01/05 04:59:09;;;;;;;25.98;17.13;;;;;;;2.56;100.00;101209.56;5010035;28;20089;-81
2023/01/05 05:01:34;;;;;;;28.55;17.80;;;;;;;1.51;100.00;101096.03;5006209;28;20030;-80
2023/01/05 05:03:59;;;;;;;24.50;15.05;;;;;;;2.48;100.00;101232.50;5007480;28;20520;-82
2023/01/05 05:06:25;;;;;;;25.65;17.73;;;;;;;1.80;100.00;101127.53;5008974;28;20042;-80
2023/01/05 05:08:51;;;;;;;34.55;16.70;;;;;;;1.94;100.00;101165.28;5008338;28;20052;-80
2023/01/05 05:11:16;;;;;;;29.65;16.05;;;;;;;2.16;100.00;101231.91;5006367;28;20091;-81
2023/01/05 05:13:42;;;;;;;25.23;14.43;;;;;;;1.83;100.00;101133.75;5014298;28;20239;-83
2023/01/05 05:16:07;;;;;;;30.58;17.08;;;;;;;1.46;100.00;101110.44;5019030;28;20054;-83
2023/01/05 05:18:33;;;;;;;28.88;15.70;;;;;;;1.75;100.00;101121.28;5009848;28;20469;-81
2023/01/05 05:20:58;;;;;;;27.08;16.08;;;;;;;2.21;100.00;101181.25;5012880;28;20072;-81
2023/01/05 05:23:24;;;;;;;25.02;18.10;;;;;;;2.32;100.00;101225.75;5005454;28;20061;-82
2023/01/05 05:25:50;;;;;;;31.98;16.63;;;;;;;2.19;100.00;101213.94;5003738;28;21962;-82
2023/01/05 05:28:17;;;;;;;26.90;16.77;;;;;;;1.60;100.00;101101.63;5010892;28;20092;-81
2023/01/05 05:30:42;;;;;;;26.48;15.07;;;;;;;2.42;100.00;101227.94;5009509;28;20113;-84
2023/01/05 05:33:08;;;;;;;31.05;17.38;;;;;;;1.58;100.00;101072.22;5007105;28;20050;-82
2023/01/05 05:35:33;;;;;;;27.05;16.50;;;;;;;2.62;100.00;101233.16;5009472;28;20405;-82
2023/01/05 05:38:00;;;;;;;30.83;14.45;;;;;;;2.74;100.00;101234.59;5001384;28;20034;-81
2023/01/05 05:40:27;;;;;;;25.83;14.60;;;;;;;1.77;100.00;101084.31;5003228;28;20137;-83
2023/01/05 05:42:52;;;;;;;33.22;18.23;;;;;;;1.97;100.00;101085.25;5012954;28;20508;-82
2023/01/05 05:45:18;;;;;;;30.83;17.60;;;;;;;2.83;100.00;101202.13;5000123;28;20045;-81
2023/01/05 05:47:43;;;;;;;37.30;15.43;;;;;;;2.72;100.00;101201.66;5007579;28;20474;-81
2023/01/05 05:50:09;;;;;;;29.02;16.25;;;;;;;2.87;100.00;101204.03;5005773;28;20048;-80
2023/01/05 05:52:35;;;;;;;32.58;17.95;;;;;;;2.66;100.00;101153.03;5014864;28;20599;-81
2023/01/05 05:55:00;;;;;;;34.70;18.35;;;;;;;1.88;100.00;101002.00;5004933;28;20062;-83
2023/01/05 05:57:26;;;;;;;35.33;18.02;;;;;;;2.44;100.00;101095.94;5009971;28;20057;-81
2023/01/05 05:59:51;;;;;;;34.55;18.00;;;;;;;2.86;100.00;101129.72;5004146;28;20042;-81
2023/01/05 06:02:18;;;;;;;42.47;20.88;;;;;;;3.19;100.00;101168.25;5001037;28;20441;-82
2023/01/05 06:04:45;;;;;;;32.42;18.05;;;;;;;3.13;100.00;101151.59;5005972;28;20049;-82
2023/01/05 06:07:11;;;;;;;38.65;20.20;;;;;;;2.51;100.00;101047.06;5004074;28;20050;-82
2023/01/05 06:09:36;;;;;;;46.90;21.02;;;;;;;2.34;100.00;101009.16;5011290;28;20119;-82
2023/01/05 06:12:02;;;;;;;58.95;22.20;;;;;;;2.80;100.00;101086.25;5009737;28;20133;-82
2023/01/05 06:14:28;;;;;;;44.47;18.58;;;;;;;3.26;100.00;101144.34;5004405;28;20464;-81
2023/01/05 06:16:53;;;;;;;42.13;22.60;;;;;;;3.36;100.00;101142.19;5005161;28;20364;-82
2023/01/05 06:19:18;;;;;;;47.90;23.50;;;;;;;3.61;100.00;101166.53;5006127;28;20048;-80
2023/01/05 06:21:44;;;;;;;47.90;22.52;;;;;;;2.86;100.00;101028.63;5007074;28;20050;-81
2023/01/05 06:24:09;;;;;;;51.10;22.27;;;;;;;3.02;100.00;101053.44;5009090;28;20057;-82
2023/01/05 06:26:36;;;;;;;42.85;23.30;;;;;;;3.59;100.00;101122.34;5004388;28;20053;-81
2023/01/05 06:29:01;;;;;;;81.10;24.23;;;;;;;2.79;100.00;101017.13;5007543;28;20057;-81
2023/01/05 06:31:27;;;;;;;59.50;24.48;;;;;;;3.79;100.00;101145.59;5010647;28;20426;-82
2023/01/05 06:33:52;;;;;;;49.80;23.52;;;;;;;3.55;100.00;101112.66;5006219;28;20046;-85
2023/01/05 06:36:18;;;;;;;45.80;23.77;;;;;;;2.89;100.00;101010.59;5000653;28;20106;-83
2023/01/05 06:38:44;;;;;;;54.58;25.95;;;;;;;3.29;100.00;101043.31;5009919;28;20476;-87
2023/01/05 06:41:09;;;;;;;74.75;24.83;;;;;;;3.31;100.00;101041.66;5010352;28;20022;-86
2023/01/05 06:43:35;;;;;;;43.88;22.83;;;;;;;3.90;100.00;101141.72;5013912;28;20404;-87
2023/01/05 06:46:00;;;;;;;57.63;21.90;;;;;;;3.98;100.00;101160.19;5002505;28;20403;-85
2023/01/05 06:48:26;;;;;;;41.20;21.45;;;;;;;3.86;100.00;101129.44;5007447;28;20050;-87
2023/01/05 06:50:51;;;;;;;53.55;23.30;;;;;;;3.84;100.00;101107.75;5002356;28;20056;-82
2023/01/05 06:53:17;;;;;;;46.65;22.17;;;;;;;4.12;100.00;101135.66;5000698;28;20033;-82
2023/01/05 06:55:44;;;;;;;46.00;24.85;;;;;;;3.56;100.00;100996.81;5004312;28;20064;-84
2023/01/05 06:58:10;;;;;;;44.92;22.20;;;;;;;3.55;100.00;100995.03;5001355;28;20039;-84
2023/01/05 07:00:35;;;;;;;43.83;23.42;;;;;;;4.20;100.00;101095.25;5001137;28;20045;-84
2023/01/05 07:03:01;;;;;;;44.53;23.90;;;;;;;3.89;100.00;101051.69;5007358;28;20531;-85
2023/01/05 07:05:26;;;;;;;48.30;22.73;;;;;;;3.73;100.00;101039.84;5007458;28;20449;-84
2023/01/05 07:07:53;;;;;;;40.08;20.92;;;;;;;4.43;100.00;101111.69;5000968;28;20034;-82
2023/01/05 07:10:18;;;;;;;39.55;20.55;;;;;;;4.54;100.00;101113.75;5007229;28;20516;-85
2023/01/05 07:12:44;;;;;;;44.17;22.38;;;;;;;4.46;100.00;101069.31;5004129;28;20077;-83
2023/01/05 07:15:09;;;;;;;37.28;20.17;;;;;;;3.53;100.00;100962.94;5011987;28;20072;-83
2023/01/05 07:17:35;;;;;;;47.85;22.42;;;;;;;4.47;100.00;101094.47;5007243;28;20069;-85
2023/01/05 07:20:01;;;;;;;48.10;22.98;;;;;;;3.65;100.00;100950.44;5007283;28;20626;-83
2023/01/05 07:22:29;;;;;;;34.00;20.95;;;;;;;4.49;100.00;101056.44;5007986;28;20091;-84
2023/01/05 07:24:58;;;;;;;31.02;16.95;;;;;;;3.87;100.00;100962.50;5009344;28;20079;-83
2023/01/05 07:27:24;;;;;;;44.40;23.83;;;;;;;3.84;100.00;100948.50;5006547;28;20115;-85
2023/01/05 07:29:50;;;;;;;38.78;21.45;;;;;;;3.83;100.00;100936.38;5013916;28;20080;-84
2023/01/05 07:32:15;;;;;;;33.80;18.77;;;;;;;4.22;100.00;100974.13;5006457;28;20073;-82
2023/01/05 07:34:41;;;;;;;34.15;21.55;;;;;;;4.69;100.00;101025.06;5007274;28;20553;-83
2023/01/05 07:37:06;;;;;;;33.50;20.55;;;;;;;3.87;100.00;100935.66;5004175;28;20745;-84
2023/01/05 07:39:32;;;;;;;35.00;21.50;;;;;;;4.79;100.00;101053.13;5005649;28;20140;-82
2023/01/05 07:41:57;;;;;;;31.15;19.25;;;;;;;4.86;100.00;101042.97;5008863;28;20076;-80
2023/01/05 07:44:23;;;;;;;32.15;19.55;;;;;;;4.94;100.00;101064.06;5007410;28;20537;-83
2023/01/05 07:46:48;;;;;;;35.28;19.95;;;;;;;4.08;100.00;100884.47;5013709;28;20504;-83
2023/01/05 07:49:14;;;;;;;33.97;21.50;;;;;;;4.84;100.00;101020.34;5002729;28;20490;-83
2023/01/05 07:51:40;;;;;;;37.53;19.50;;;;;;;5.05;100.00;101023.66;5008737;28;20640;-84
2023/01/05 07:54:05;;;;;;;33.03;18.58;;;;;;;4.55;100.00;100963.09;5010852;28;20068;-85
2023/01/05 07:56:30;;;;;;;38.30;22.70;;;;;;;3.96;100.00;100856.38;5007163;28;20119;-84
2023/01/05 07:58:56;;;;;;;40.85;20.67;;;;;;;4.31;100.00;100933.69;5006351;28;20061;-84
2023/01/05 08:01:21;;;;;;;32.72;18.15;;;;;;;4.30;100.00;100943.19;5011574;28;20057;-82
2023/01/05 08:03:47;;;;;;;28.35;18.58;;;;;;;4.54;100.00;100966.53;5006813;28;20481;-84
2023/01/05 08:06:15;;;;;;;48.40;21.10;;;;;;;5.10;100.00;101031.59;5005305;28;20034;-83
2023/01/05 08:08:41;;;;;;;34.33;20.25;;;;;;;4.26;100.00;100920.56;5003729;28;20058;-86
2023/01/05 08:11:08;;;;;;;35.92;19.38;;;;;;;5.01;100.00;101002.69;4999097;28;20042;-85
2023/01/05 08:14:19;;;;;;;35.92;19.27;;;;;;;4.60;100.00;100932.06;4991198;28;20491;-80
2023/01/05 08:16:20;;;;;;;42.70;22.75;;;;;;;4.65;100.00;100915.78;4990903;28;20509;-79
2023/01/05 08:18:46;;;;;;;30.98;18.58;;;;;;;5.28;100.00;101019.19;4992806;28;20046;-80
2023/01/05 08:21:11;;;;;;;29.63;18.00;;;;;;;4.43;100.00;100906.41;5003736;28;20065;-78
2023/01/05 08:23:38;;;;;;;34.28;20.15;;;;;;;4.45;100.00;100896.09;5003604;28;20117;-79
2023/01/05 08:26:12;;;;;;;28.75;18.60;;;;;;;4.72;100.00;100942.84;5004588;28;20048;-80
2023/01/05 08:28:38;;;;;;;26.67;18.42;;;;;;;5.24;100.00;101012.16;5012263;28;20033;-79
2023/01/05 08:31:07;;;;;;;28.55;17.83;;;;;;;4.86;100.00;100935.50;5008980;28;20049;-78
2023/01/05 08:33:33;;;;;;;30.27;17.35;;;;;;;4.80;100.00;100911.91;5002440;28;20100;-78
2023/01/05 08:35:59;;;;;;;29.85;16.17;;;;;;;5.45;100.00;100982.38;5015335;28;20080;-80
2023/01/05 08:38:25;;;;;;;26.10;16.50;;;;;;;5.44;100.00;101002.31;4999616;28;20057;-80
2023/01/05 08:40:50;;;;;;;31.85;19.73;;;;;;;4.87;100.00;100867.06;5010153;28;20101;-77
2023/01/05 08:43:16;;;;;;;32.92;18.77;;;;;;;5.47;100.00;100978.13;5007796;28;20366;-79
2023/01/05 08:45:42;;;;;;;31.17;18.20;;;;;;;5.76;100.00;100972.88;5008959;28;20049;-81
2023/01/05 08:48:09;;;;;;;33.70;19.58;;;;;;;5.55;100.00;100948.00;5007107;28;21014;-81
2023/01/05 08:50:35;;;;;;;28.75;17.25;;;;;;;5.17;100.00;100864.47;5003964;28;20050;-81
2023/01/05 08:53:00;;;;;;;35.90;19.63;;;;;;;5.15;100.00;100849.66;5016666;28;20378;-79
2023/01/05 08:55:26;;;;;;;31.60;19.25;;;;;;;5.60;100.00;100916.91;5010069;28;20137;-81
2023/01/05 08:57:51;;;;;;;28.77;17.27;;;;;;;4.95;100.00;100820.50;5010655;28;20038;-81
2023/01/05 09:00:17;;;;;;;33.85;19.23;;;;;;;5.82;100.00;100947.00;5014045;28;20050;-82
2023/01/05 09:02:43;;;;;;;29.00;17.80;;;;;;;5.96;100.00;100939.63;5002399;28;20116;-81
2023/01/05 09:05:09;;;;;;;30.42;17.52;;;;;;;5.97;100.00;100933.56;5008048;28;20048;-76
2023/01/05 09:07:34;;;;;;;30.35;17.92;;;;;;;5.14;100.00;100816.69;5006394;28;20034;-80
2023/01/05 09:10:00;;;;;;;27.75;19.50;;;;;;;5.28;100.00;100828.38;5004125;28;20069;-84
2023/01/05 09:12:25;;;;;;;27.75;17.50;;;;;;;5.84;100.00;100920.16;5007211;28;20057;-81
2023/01/05 09:14:52;;;;;;;32.22;18.33;;;;;;;5.79;100.00;100871.41;4997029;28;20124;-81
2023/01/05 09:17:18;;;;;;;35.13;20.08;;;;;;;5.79;100.00;100856.66;5008712;28;20041;-83
2023/01/05 09:19:43;;;;;;;29.23;19.55;;;;;;;5.66;100.00;100867.59;5010468;28;20156;-80
2023/01/05 09:22:09;;;;;;;27.30;17.85;;;;;;;6.09;100.00;100898.31;5008574;28;20049;-80
2023/01/05 09:24:34;;;;;;;31.00;18.33;;;;;;;5.99;100.00;100877.16;4999010;28;20041;-81
2023/01/05 09:27:00;;;;;;;24.02;18.05;;;;;;;5.40;100.00;100784.47;5017301;28;20087;-81
2023/01/05 09:29:25;;;;;;;33.28;20.27;;;;;;;5.72;100.00;100828.72;5005451;28;20071;-83
2023/01/05 09:31:51;;;;;;;30.63;20.30;;;;;;;5.25;100.00;100771.94;5014381;28;20031;-81
2023/01/05 09:34:17;;;;;;;26.30;17.77;;;;;;;5.56;100.00;100834.34;5006332;28;20143;-81
2023/01/05 09:36:43;;;;;;;29.67;18.10;;;;;;;5.19;100.00;100750.94;5008140;28;23380;-81
2023/01/05 09:39:09;;;;;;;27.08;16.90;;;;;;;5.82;100.00;100809.88;5008248;28;20536;-78
2023/01/05 09:41:48;;;;;;;31.42;18.15;;;;;;;5.80;100.00;100854.94;5002325;28;20046;-78
2023/01/05 09:44:22;;;;;;;33.50;17.90;;;;;;;6.04;100.00;100849.50;5007064;28;20045;-81
2023/01/05 09:46:49;;;;;;;25.92;16.75;;;;;;;5.73;100.00;100754.97;5011233;28;20083;-81
2023/01/05 09:49:20;;;;;;;30.23;18.27;;;;;;;5.87;100.00;100770.94;5002422;28;20050;-81
2023/01/05 09:51:48;;;;;;;30.70;17.92;;;;;;;5.48;100.00;100680.59;5005599;28;20085;-83
2023/01/05 09:54:18;;;;;;;29.25;19.95;;;;;;;5.57;100.00;100675.63;5016447;28;20030;-80
2023/01/05 09:56:48;;;;;;;30.50;20.30;;;;;;;6.43;100.00;100776.63;5005284;28;20053;-81
2023/01/05 09:59:35;;;;;;;21.90;16.23;;;;;;;5.45;100.00;100621.53;5009299;28;20412;-82
2023/01/05 10:02:16;;;;;;;33.30;21.25;;;;;;;6.45;100.00;100764.53;5000748;28;20117;-84
2023/01/05 10:04:41;;;;;;;32.20;19.60;;;;;;;5.71;100.00;100643.00;5011159;28;20084;-85
2023/01/05 10:07:40;;;;;;;30.50;18.25;;;;;;;6.29;100.00;100728.53;5007724;28;20073;-81
2023/01/05 10:10:25;;;;;;;32.35;20.23;;;;;;;6.38;100.00;100759.16;5003424;28;20050;-82
2023/01/05 10:13:05;;;;;;;30.08;21.27;;;;;;;5.79;100.00;100671.81;4998126;28;20046;-83
2023/01/05 10:15:52;;;;;;;43.95;22.08;;;;;;;6.60;100.00;100761.34;5009187;28;20046;-84
2023/01/05 10:18:24;;;;;;;35.13;22.90;;;;;;;6.77;100.00;100769.56;5003520;28;20057;-83
2023/01/05 10:21:09;;;;;;;27.33;20.60;;;;;;;6.82;100.00;100749.66;5007144;28;20045;-82
2023/01/05 10:23:46;;;;;;;32.85;21.10;;;;;;;6.79;100.00;100746.09;5006259;28;20551;-85
2023/01/05 10:26:51;;;;;;;31.88;20.13;;;;;;;6.76;100.00;100731.28;4999932;28;20092;-84
2023/01/05 10:29:24;;;;;;;32.30;20.88;;;;;;;5.84;100.00;100610.28;5003305;28;20543;-82
2023/01/05 10:32:10;;;;;;;33.75;21.48;;;;;;;6.49;100.00;100701.19;5008993;28;20038;-81
2023/01/05 10:34:48;;;;;;;40.15;22.45;;;;;;;6.40;100.00;100668.84;5019397;28;20501;-80
2023/01/05 10:37:20;;;;;;;32.58;20.48;;;;;;;6.97;100.00;100720.41;5001319;28;20125;-83
2023/01/05 10:40:07;;;;;;;30.60;20.30;;;;;;;6.96;100.00;100711.69;5008387;28;20564;-83
2023/01/05 10:42:54;;;;;;;36.95;21.00;;;;;;;6.85;100.00;100694.09;5007681;28;20050;-81
2023/01/05 10:45:20;;;;;;;31.92;20.38;;;;;;;7.01;100.00;100693.53;4994004;28;20448;-82
2023/01/05 10:47:48;;;;;;;37.08;26.88;;;;;;;6.40;100.00;100614.09;5011632;28;20049;-83
2023/01/05 10:50:35;;;;;;;40.58;29.55;;;;;;;6.93;100.00;100718.56;5008404;28;20041;-81
2023/01/05 10:53:13;;;;;;;33.50;21.92;;;;;;;6.63;100.00;100730.16;5000498;28;20044;-82
2023/01/05 10:56:03;;;;;;;28.63;18.35;;;;;;;6.62;100.00;100730.13;5005355;28;20081;-79
2023/01/05 10:58:34;;;;;;;35.72;19.45;;;;;;;5.69;100.00;100591.72;5003537;28;20049;-85
2023/01/05 11:01:14;;;;;;;34.35;21.45;;;;;;;6.20;100.00;100705.75;5008488;28;20095;-83
2023/01/05 11:03:43;;;;;;;32.90;19.95;;;;;;;6.18;100.00;100707.47;5005889;28;20076;-82
2023/01/05 11:06:19;;;;;;;36.92;26.58;;;;;;;5.64;100.00;100633.28;5003872;28;20119;-81
2023/01/05 11:08:45;;;;;;;28.42;20.38;;;;;;;5.66;100.00;100597.72;5002781;28;20061;-80
2023/01/05 11:11:21;;;;;;;30.92;20.17;;;;;;;6.71;100.00;100732.91;5003072;28;20442;-85
2023/01/05 11:13:48;;;;;;;37.17;21.23;;;;;;;6.11;100.00;100597.03;5004058;28;20064;-83
2023/01/05 11:16:19;;;;;;;42.72;26.05;;;;;;;6.02;100.00;100580.34;5005564;28;20046;-81
2023/01/05 11:18:49;;;;;;;50.03;21.92;;;;;;;6.84;100.00;100702.78;5011392;28;20053;-82
2023/01/05 11:21:21;;;;;;;26.08;18.13;;;;;;;6.74;100.00;100689.53;5016338;28;20133;-82
2023/01/05 11:23:48;;;;;;;28.95;18.90;;;;;;;6.83;100.00;100690.56;5024527;28;20056;-79
2023/01/05 11:26:16;;;;;;;34.53;20.48;;;;;;;6.93;100.00;100680.34;5007927;28;20030;-79
2023/01/05 11:29:07;;;;;;;42.80;29.40;;;;;;;7.14;100.00;100658.09;5002769;28;20034;-82
2023/01/05 11:31:59;;;;;;;31.00;21.52;;;;;;;6.31;100.00;100515.75;5002864;28;20046;-81
2023/01/05 11:34:40;;;;;;;29.40;19.90;;;;;;;7.14;100.00;100622.47;5003538;28;20054;-81
2023/01/05 11:37:26;;;;;;;33.85;26.10;;;;;;;6.73;100.00;100507.84;4999782;28;20068;-80
2023/01/05 11:39:55;;;;;;;29.35;19.42;;;;;;;7.46;100.00;100590.78;5002233;28;20042;-81
2023/01/05 11:42:23;;;;;;;39.63;27.50;;;;;;;7.37;100.00;100595.84;4995739;28;20046;-80
2023/01/05 11:44:57;;;;;;;35.03;27.98;;;;;;;7.25;100.00;100528.66;5009219;28;20136;-80
2023/01/05 11:47:33;;;;;;;31.20;20.10;;;;;;;6.65;100.00;100454.69;5012281;28;20056;-88